sensor_id;sensor_type;location;lat;lon;timestamp;pressure;altitude;pressure_sealevel;temperature;humidity
929;BME280;451;47.988;7.842;2023-04-27T00:00:47;98544.41;;;10.93;91.28
929;BME280;451;47.988;7.842;2023-04-27T00:09:51;98522.69;;;11.00;89.78
929;BME280;451;47.988;7.842;2023-04-27T00:18:55;98536.03;;;10.98;91.70
929;BME280;451;47.988;7.842;2023-04-27T00:27:59;98535.38;;;11.27;88.96
929;BME280;451;47.988;7.842;2023-04-27T00:37:02;98522.88;;;11.29;88.73
929;BME280;451;47.988;7.842;2023-04-27T00:46:08;98508.41;;;10.94;92.49
929;BME280;451;47.988;7.842;2023-04-27T00:55:11;98520.25;;;10.98;94.37
929;BME280;451;47.988;7.842;2023-04-27T01:04:16;98518.78;;;10.87;95.12
929;BME280;451;47.988;7.842;2023-04-27T01:13:20;98538.81;;;10.97;94.36
929;BME280;451;47.988;7.842;2023-04-27T01:22:24;98535.25;;;11.20;93.27
929;BME280;451;47.988;7.842;2023-04-27T01:31:29;98543.38;;;11.42;89.94
929;BME280;451;47.988;7.842;2023-04-27T01:40:32;98536.81;;;11.91;86.80
929;BME280;451;47.988;7.842;2023-04-27T01:49:37;98533.47;;;11.75;89.21
929;BME280;451;47.988;7.842;2023-04-27T01:58:40;98524.09;;;11.95;87.82
929;BME280;451;47.988;7.842;2023-04-27T02:07:45;98536.56;;;11.55;88.65
929;BME280;451;47.988;7.842;2023-04-27T02:16:48;98512.13;;;11.08;92.10
929;BME280;451;47.988;7.842;2023-04-27T02:25:52;98533.81;;;10.79;97.54
929;BME280;451;47.988;7.842;2023-04-27T02:34:55;98526.00;;;10.93;95.69
929;BME280;451;47.988;7.842;2023-04-27T02:44:00;98534.72;;;10.94;95.70
929;BME280;451;47.988;7.842;2023-04-27T02:53:03;98513.53;;;10.87;96.17
929;BME280;451;47.988;7.842;2023-04-27T03:02:07;98533.25;;;10.91;95.94
929;BME280;451;47.988;7.842;2023-04-27T03:11:10;98549.94;;;11.46;93.29
929;BME280;451;47.988;7.842;2023-04-27T03:20:27;98546.13;;;10.86;97.94
929;BME280;451;47.988;7.842;2023-04-27T03:29:30;98557.69;;;10.53;97.93
929;BME280;451;47.988;7.842;2023-04-27T03:38:35;98545.81;;;10.73;97.19
929;BME280;451;47.988;7.842;2023-04-27T03:47:39;98554.19;;;10.77;97.51
929;BME280;451;47.988;7.842;2023-04-27T03:56:43;98544.63;;;10.84;98.11
929;BME280;451;47.988;7.842;2023-04-27T04:05:47;98545.69;;;11.06;98.37
929;BME280;451;47.988;7.842;2023-04-27T04:14:52;98544.97;;;11.20;96.38
929;BME280;451;47.988;7.842;2023-04-27T04:23:55;98549.78;;;11.39;93.89
929;BME280;451;47.988;7.842;2023-04-27T04:32:59;98412.47;;;10.51;91.04
929;BME280;451;47.988;7.842;2023-04-27T04:42:02;98549.09;;;11.45;91.00
929;BME280;451;47.988;7.842;2023-04-27T04:51:08;98527.75;;;10.70;96.09
929;BME280;451;47.988;7.842;2023-04-27T05:00:13;98539.69;;;11.51;91.63
929;BME280;451;47.988;7.842;2023-04-27T05:09:17;98538.19;;;11.25;92.50
929;BME280;451;47.988;7.842;2023-04-27T05:18:20;98546.81;;;11.11;92.51
929;BME280;451;47.988;7.842;2023-04-27T05:27:25;98576.81;;;11.33;91.47
929;BME280;451;47.988;7.842;2023-04-27T05:36:28;98583.13;;;11.24;93.05
929;BME280;451;47.988;7.842;2023-04-27T05:45:32;98595.34;;;11.79;89.85
929;BME280;451;47.988;7.842;2023-04-27T05:54:45;98596.69;;;12.20;89.54
929;BME280;451;47.988;7.842;2023-04-27T06:03:49;98617.16;;;12.33;86.09
929;BME280;451;47.988;7.842;2023-04-27T06:12:52;98613.28;;;13.40;83.50
929;BME280;451;47.988;7.842;2023-04-27T06:21:59;98592.69;;;13.86;79.58
929;BME280;451;47.988;7.842;2023-04-27T06:31:04;98621.91;;;14.69;71.95
929;BME280;451;47.988;7.842;2023-04-27T06:40:09;98629.31;;;15.08;70.29
929;BME280;451;47.988;7.842;2023-04-27T06:49:12;98622.56;;;15.06;69.46
929;BME280;451;47.988;7.842;2023-04-27T06:58:17;98620.09;;;15.80;65.52
929;BME280;451;47.988;7.842;2023-04-27T07:07:20;98627.25;;;16.05;63.75
929;BME280;451;47.988;7.842;2023-04-27T07:16:25;98616.72;;;16.51;61.25
929;BME280;451;47.988;7.842;2023-04-27T07:25:28;98612.66;;;16.49;60.00
929;BME280;451;47.988;7.842;2023-04-27T07:34:33;98602.69;;;17.42;58.41
929;BME280;451;47.988;7.842;2023-04-27T07:43:37;98592.81;;;16.91;55.25
929;BME280;451;47.988;7.842;2023-04-27T07:52:43;98591.25;;;17.34;55.80
929;BME280;451;47.988;7.842;2023-04-27T08:01:46;98548.19;;;18.27;50.27
929;BME280;451;47.988;7.842;2023-04-27T08:10:51;98586.81;;;18.11;50.19
929;BME280;451;47.988;7.842;2023-04-27T08:19:54;98603.41;;;18.31;51.34
929;BME280;451;47.988;7.842;2023-04-27T08:28:58;98600.22;;;17.91;52.45
929;BME280;451;47.988;7.842;2023-04-27T08:38:01;98585.94;;;17.41;53.60
929;BME280;451;47.988;7.842;2023-04-27T08:47:06;98574.34;;;17.73;54.29
929;BME280;451;47.988;7.842;2023-04-27T08:56:09;98588.28;;;17.56;52.35
929;BME280;451;47.988;7.842;2023-04-27T09:05:18;98613.81;;;18.08;53.46
929;BME280;451;47.988;7.842;2023-04-27T09:14:22;98578.06;;;17.66;56.41
929;BME280;451;47.988;7.842;2023-04-27T09:23:29;98528.69;;;18.58;52.90
929;BME280;451;47.988;7.842;2023-04-27T09:32:32;98576.00;;;21.53;46.09
929;BME280;451;47.988;7.842;2023-04-27T09:41:37;98578.41;;;20.68;45.80
929;BME280;451;47.988;7.842;2023-04-27T09:50:41;98556.38;;;22.21;44.17
929;BME280;451;47.988;7.842;2023-04-27T10:00:00;98560.19;;;20.41;47.46
929;BME280;451;47.988;7.842;2023-04-27T10:09:09;98532.34;;;21.12;45.98
929;BME280;451;47.988;7.842;2023-04-27T10:18:24;98521.91;;;21.79;44.33
929;BME280;451;47.988;7.842;2023-04-27T10:27:38;98552.50;;;21.55;45.21
929;BME280;451;47.988;7.842;2023-04-27T10:36:43;98525.06;;;21.48;44.22
929;BME280;451;47.988;7.842;2023-04-27T10:45:46;98541.28;;;22.15;43.37
929;BME280;451;47.988;7.842;2023-04-27T10:54:50;98539.00;;;22.06;43.38
929;BME280;451;47.988;7.842;2023-04-27T11:03:54;98527.63;;;21.99;43.38
929;BME280;451;47.988;7.842;2023-04-27T11:13:06;98416.63;;;20.37;45.49
929;BME280;451;47.988;7.842;2023-04-27T11:22:09;98509.22;;;21.74;44.12
929;BME280;451;47.988;7.842;2023-04-27T11:31:13;98503.38;;;21.61;44.08
929;BME280;451;47.988;7.842;2023-04-27T11:40:17;98495.34;;;21.32;44.85
929;BME280;451;47.988;7.842;2023-04-27T11:49:21;98488.31;;;22.55;43.63
929;BME280;451;47.988;7.842;2023-04-27T11:58:26;98483.16;;;22.32;42.77
929;BME280;451;47.988;7.842;2023-04-27T12:07:31;98485.16;;;21.06;45.02
929;BME280;451;47.988;7.842;2023-04-27T12:16:34;98467.56;;;21.33;44.33
929;BME280;451;47.988;7.842;2023-04-27T12:25:38;98489.16;;;22.39;42.89
929;BME280;451;47.988;7.842;2023-04-27T12:34:45;98458.56;;;23.65;39.95
929;BME280;451;47.988;7.842;2023-04-27T12:43:50;98472.91;;;22.45;39.72
929;BME280;451;47.988;7.842;2023-04-27T12:52:53;98448.50;;;25.09;37.22
929;BME280;451;47.988;7.842;2023-04-27T13:01:58;98414.16;;;24.74;36.03
929;BME280;451;47.988;7.842;2023-04-27T13:11:02;98433.16;;;23.78;38.23
929;BME280;451;47.988;7.842;2023-04-27T13:20:08;98421.41;;;24.21;36.25
929;BME280;451;47.988;7.842;2023-04-27T13:29:11;98439.91;;;24.60;38.18
929;BME280;451;47.988;7.842;2023-04-27T13:38:15;98419.13;;;25.02;38.20
929;BME280;451;47.988;7.842;2023-04-27T13:47:18;98417.59;;;25.37;35.28
929;BME280;451;47.988;7.842;2023-04-27T13:56:23;98415.13;;;25.05;34.76
929;BME280;451;47.988;7.842;2023-04-27T14:05:26;98405.94;;;24.38;36.37
929;BME280;451;47.988;7.842;2023-04-27T14:14:30;98421.91;;;23.01;37.33
929;BME280;451;47.988;7.842;2023-04-27T14:23:33;98418.50;;;22.45;39.96
929;BME280;451;47.988;7.842;2023-04-27T14:32:38;98399.09;;;21.83;38.89
929;BME280;451;47.988;7.842;2023-04-27T14:41:41;98401.50;;;22.18;40.75
929;BME280;451;47.988;7.842;2023-04-27T14:50:45;98411.75;;;22.81;38.08
929;BME280;451;47.988;7.842;2023-04-27T14:59:48;98397.63;;;24.03;36.73
929;BME280;451;47.988;7.842;2023-04-27T15:08:53;98385.69;;;23.52;37.42
929;BME280;451;47.988;7.842;2023-04-27T15:17:57;98379.69;;;22.91;37.76
929;BME280;451;47.988;7.842;2023-04-27T15:27:01;98380.13;;;23.05;37.36
929;BME280;451;47.988;7.842;2023-04-27T15:36:04;98359.06;;;22.48;39.12
929;BME280;451;47.988;7.842;2023-04-27T15:45:10;98358.28;;;22.31;39.66
929;BME280;451;47.988;7.842;2023-04-27T15:54:13;98354.84;;;22.13;39.16
929;BME280;451;47.988;7.842;2023-04-27T16:03:17;98342.06;;;21.82;39.11
929;BME280;451;47.988;7.842;2023-04-27T16:12:20;98329.19;;;21.79;39.53
929;BME280;451;47.988;7.842;2023-04-27T16:21:25;98334.41;;;21.36;40.53
929;BME280;451;47.988;7.842;2023-04-27T16:30:28;98327.56;;;21.28;40.54
929;BME280;451;47.988;7.842;2023-04-27T16:39:33;98325.25;;;21.03;40.62
929;BME280;451;47.988;7.842;2023-04-27T16:48:36;98309.91;;;22.16;39.43
929;BME280;451;47.988;7.842;2023-04-27T16:57:40;98330.25;;;21.00;40.84
929;BME280;451;47.988;7.842;2023-04-27T17:06:45;98326.28;;;21.47;40.57
929;BME280;451;47.988;7.842;2023-04-27T17:15:51;98339.81;;;21.12;40.99
929;BME280;451;47.988;7.842;2023-04-27T17:24:56;98325.63;;;20.38;43.47
929;BME280;451;47.988;7.842;2023-04-27T17:34:01;98329.81;;;20.23;44.28
929;BME280;451;47.988;7.842;2023-04-27T17:43:04;98334.94;;;20.01;44.89
929;BME280;451;47.988;7.842;2023-04-27T17:52:08;98349.13;;;19.66;45.51
929;BME280;451;47.988;7.842;2023-04-27T18:01:11;98336.47;;;19.73;45.85
929;BME280;451;47.988;7.842;2023-04-27T18:10:16;98309.81;;;19.73;46.83
929;BME280;451;47.988;7.842;2023-04-27T18:19:19;98304.69;;;19.60;49.38
929;BME280;451;47.988;7.842;2023-04-27T18:28:23;98317.72;;;18.74;52.35
929;BME280;451;47.988;7.842;2023-04-27T18:37:26;98322.41;;;18.24;53.85
929;BME280;451;47.988;7.842;2023-04-27T18:46:31;98288.84;;;17.86;55.32
929;BME280;451;47.988;7.842;2023-04-27T18:55:34;98331.50;;;17.98;56.52
929;BME280;451;47.988;7.842;2023-04-27T19:04:41;98293.91;;;17.45;57.71
929;BME280;451;47.988;7.842;2023-04-27T19:13:44;98310.06;;;17.18;57.64
929;BME280;451;47.988;7.842;2023-04-27T19:22:49;98340.50;;;17.22;58.65
929;BME280;451;47.988;7.842;2023-04-27T19:31:52;98339.34;;;16.80;59.45
929;BME280;451;47.988;7.842;2023-04-27T19:40:56;98346.59;;;16.67;60.55
929;BME280;451;47.988;7.842;2023-04-27T19:49:59;98344.47;;;16.75;60.98
929;BME280;451;47.988;7.842;2023-04-27T19:59:04;98349.28;;;16.47;60.57
929;BME280;451;47.988;7.842;2023-04-27T20:08:07;98307.78;;;16.08;61.87
929;BME280;451;47.988;7.842;2023-04-27T20:17:12;98318.44;;;15.95;64.50
929;BME280;451;47.988;7.842;2023-04-27T20:26:15;98311.47;;;16.07;65.02
929;BME280;451;47.988;7.842;2023-04-27T20:35:23;98345.34;;;16.05;65.06
929;BME280;451;47.988;7.842;2023-04-27T20:44:29;98260.59;;;15.65;64.81
929;BME280;451;47.988;7.842;2023-04-27T20:53:34;98328.66;;;15.98;64.92
929;BME280;451;47.988;7.842;2023-04-27T21:02:37;98322.56;;;15.78;65.09
929;BME280;451;47.988;7.842;2023-04-27T21:11:41;98320.91;;;15.90;65.85
929;BME280;451;47.988;7.842;2023-04-27T21:20:44;98292.44;;;15.52;66.81
929;BME280;451;47.988;7.842;2023-04-27T21:29:49;98304.47;;;15.55;67.41
929;BME280;451;47.988;7.842;2023-04-27T21:38:52;98279.16;;;15.59;65.74
929;BME280;451;47.988;7.842;2023-04-27T21:47:56;98279.78;;;15.54;66.68
929;BME280;451;47.988;7.842;2023-04-27T21:56:59;98278.75;;;15.62;67.85
929;BME280;451;47.988;7.842;2023-04-27T22:06:04;98235.38;;;15.17;68.17
929;BME280;451;47.988;7.842;2023-04-27T22:15:08;98274.88;;;15.12;70.61
929;BME280;451;47.988;7.842;2023-04-27T22:24:13;98272.84;;;15.33;68.14
929;BME280;451;47.988;7.842;2023-04-27T22:33:16;98271.66;;;15.16;69.62
929;BME280;451;47.988;7.842;2023-04-27T22:42:20;98143.72;;;14.24;70.18
929;BME280;451;47.988;7.842;2023-04-27T22:51:23;98279.78;;;14.95;71.92
929;BME280;451;47.988;7.842;2023-04-27T23:00:29;98286.09;;;15.07;69.36
929;BME280;451;47.988;7.842;2023-04-27T23:09:32;98273.06;;;14.92;70.95
929;BME280;451;47.988;7.842;2023-04-27T23:18:37;98261.88;;;15.04;70.84
929;BME280;451;47.988;7.842;2023-04-27T23:27:40;98265.09;;;15.06;70.97
929;BME280;451;47.988;7.842;2023-04-27T23:36:44;98263.69;;;14.90;72.08
929;BME280;451;47.988;7.842;2023-04-27T23:45:47;98256.13;;;14.80;73.24
929;BME280;451;47.988;7.842;2023-04-27T23:54:52;98249.22;;;15.19;71.46
